createdAt,value
2018-02-25T00:01:33.512Z,53.60
2018-02-25T00:04:01.080Z,53.70
2018-02-25T00:06:29.663Z,53.60
2018-02-25T00:08:57.231Z,53.40
2018-02-25T00:11:24.770Z,53.30
2018-02-25T00:13:52.319Z,53.90
2018-02-25T00:16:20.656Z,54.00
2018-02-25T00:18:48.988Z,53.60
2018-02-25T00:21:16.519Z,53.60
2018-02-25T00:23:44.834Z,53.70
2018-02-25T00:26:12.397Z,53.70
2018-02-25T00:28:39.983Z,53.50
2018-02-25T00:31:07.526Z,53.60
2018-02-25T00:33:35.085Z,53.70
2018-02-25T00:36:03.383Z,53.80
2018-02-25T00:38:31.767Z,53.60
2018-02-25T00:41:00.097Z,53.80
2018-02-25T00:43:27.661Z,53.70
2018-02-25T00:45:55.250Z,53.70
2018-02-25T00:48:22.846Z,53.50
2018-02-25T00:50:50.394Z,53.60
2018-02-25T00:53:17.958Z,53.30
2018-02-25T00:55:45.506Z,54.00
2018-02-25T00:58:13.096Z,53.80
2018-02-25T01:00:40.674Z,53.40
2018-02-25T01:03:08.247Z,53.60
2018-02-25T01:05:35.793Z,54.00
2018-02-25T01:08:04.130Z,54.10
2018-02-25T01:10:31.676Z,54.10
2018-02-25T01:12:59.256Z,54.10
2018-02-25T01:15:26.859Z,54.10
2018-02-25T01:17:54.427Z,54.10
2018-02-25T01:20:21.984Z,54.10
2018-02-25T01:22:49.576Z,54.10
2018-02-25T01:25:17.122Z,54.00
2018-02-25T01:27:44.699Z,54.00
2018-02-25T01:30:12.270Z,54.10
2018-02-25T01:32:39.828Z,54.20
2018-02-25T01:35:07.394Z,54.30
2018-02-25T01:37:34.962Z,54.40
2018-02-25T01:40:02.524Z,54.90
2018-02-25T01:42:30.827Z,55.10
2018-02-25T01:44:58.398Z,55.00
2018-02-25T01:47:25.947Z,55.00
2018-02-25T01:49:53.538Z,55.30
2018-02-25T01:52:21.083Z,55.50
2018-02-25T01:54:48.656Z,55.30
2018-02-25T01:57:16.202Z,55.50
2018-02-25T01:59:43.787Z,55.50
2018-02-25T02:02:11.350Z,55.70
2018-02-25T02:04:38.929Z,55.90
2018-02-25T02:07:06.473Z,56.20
2018-02-25T02:09:34.043Z,56.20
2018-02-25T02:12:01.589Z,56.40
2018-02-25T02:14:29.187Z,56.40
2018-02-25T02:16:57.503Z,56.60
2018-02-25T02:19:25.084Z,56.60
2018-02-25T02:21:52.643Z,56.70
2018-02-25T02:24:20.231Z,56.60
2018-02-25T02:26:47.788Z,56.60
2018-02-25T02:29:15.365Z,56.80
2018-02-25T02:31:43.671Z,57.00
2018-02-25T02:34:11.228Z,56.90
2018-02-25T02:36:38.766Z,57.00
2018-02-25T02:39:06.322Z,57.20
2018-02-25T02:41:33.880Z,57.20
2018-02-25T02:44:02.228Z,57.20
2018-02-25T02:46:29.767Z,57.20
2018-02-25T02:48:57.347Z,57.20
2018-02-25T02:51:24.896Z,57.20
2018-02-25T02:53:52.473Z,57.20
2018-02-25T02:56:20.785Z,57.30
2018-02-25T02:58:48.363Z,57.30
2018-02-25T03:01:15.916Z,57.30
2018-02-25T03:03:43.472Z,57.40
2018-02-25T03:06:11.820Z,57.40
2018-02-25T03:08:39.375Z,57.40
2018-02-25T03:11:06.935Z,57.40
2018-02-25T03:13:34.467Z,57.60
2018-02-25T03:16:02.024Z,57.60
2018-02-25T03:18:29.579Z,57.50
2018-02-25T03:20:57.144Z,57.90
2018-02-25T03:23:24.676Z,57.60
2018-02-25T03:25:53.003Z,57.70
2018-02-25T03:28:20.561Z,57.60
2018-02-25T03:30:48.146Z,57.70
2018-02-25T03:33:15.682Z,57.90
2018-02-25T03:35:44.035Z,58.10
2018-02-25T03:38:11.583Z,58.10
2018-02-25T03:40:39.152Z,58.20
2018-02-25T03:43:06.706Z,58.40
2018-02-25T03:45:34.308Z,58.50
2018-02-25T03:48:01.839Z,58.60
2018-02-25T03:50:29.433Z,58.80
2018-02-25T03:52:56.992Z,58.70
2018-02-25T03:55:24.572Z,58.90
2018-02-25T03:57:52.112Z,58.80
2018-02-25T04:00:20.426Z,58.80
2018-02-25T04:02:47.958Z,58.80
2018-02-25T04:05:16.319Z,59.10
2018-02-25T04:07:43.899Z,59.00
2018-02-25T04:10:11.453Z,59.10
2018-02-25T04:12:39.000Z,59.00
2018-02-25T04:15:06.571Z,59.10
2018-02-25T04:17:34.133Z,59.10
2018-02-25T04:20:02.478Z,59.00
2018-02-25T04:22:30.024Z,59.00
2018-02-25T04:24:57.583Z,59.10
2018-02-25T04:27:25.138Z,59.30
2018-02-25T04:29:52.696Z,59.10
2018-02-25T04:32:21.008Z,59.20
2018-02-25T04:34:48.580Z,59.20
2018-02-25T04:37:16.137Z,59.10
2018-02-25T04:39:44.471Z,59.40
2018-02-25T04:42:12.019Z,59.40
2018-02-25T04:44:39.573Z,59.20
2018-02-25T04:47:07.158Z,59.30
2018-02-25T04:49:34.715Z,59.50
2018-02-25T04:52:03.031Z,59.30
2018-02-25T04:54:30.563Z,59.20
2018-02-25T04:56:58.110Z,59.30
2018-02-25T04:59:25.674Z,59.00
2018-02-25T05:01:53.244Z,59.00
2018-02-25T05:04:20.786Z,59.00
2018-02-25T05:06:48.367Z,58.60
2018-02-25T05:09:15.903Z,58.80
2018-02-25T05:11:44.236Z,58.80
2018-02-25T05:14:11.782Z,58.80
2018-02-25T05:16:39.346Z,58.50
2018-02-25T05:19:07.654Z,58.30
2018-02-25T05:21:35.229Z,58.30
2018-02-25T05:24:02.787Z,58.80
2018-02-25T05:26:30.365Z,58.70
2018-02-25T05:28:57.903Z,58.60
2018-02-25T05:31:25.464Z,58.70
2018-02-25T05:33:53.010Z,58.70
2018-02-25T05:36:20.584Z,58.50
2018-02-25T05:38:48.143Z,58.60
2018-02-25T05:41:15.706Z,58.80
2018-02-25T05:43:43.242Z,58.50
2018-02-25T05:46:11.565Z,58.50
2018-02-25T05:48:39.108Z,58.40
2018-02-25T05:51:07.431Z,58.60
2018-02-25T05:53:34.971Z,58.60
2018-02-25T05:56:03.300Z,58.70
2018-02-25T05:58:30.861Z,58.70
2018-02-25T06:00:58.436Z,58.80
2018-02-25T06:03:25.976Z,59.00
2018-02-25T06:05:54.302Z,58.80
2018-02-25T06:08:21.845Z,58.80
2018-02-25T06:10:50.163Z,59.20
2018-02-25T06:13:17.704Z,59.20
2018-02-25T06:15:46.030Z,59.90
2018-02-25T06:18:13.571Z,59.70
2018-02-25T06:20:41.909Z,59.70
2018-02-25T06:23:09.457Z,60.40
2018-02-25T06:25:36.990Z,59.80
2018-02-25T06:28:05.310Z,59.30
2018-02-25T06:30:32.887Z,59.20
2018-02-25T06:33:00.466Z,59.10
2018-02-25T06:35:28.016Z,59.20
2018-02-25T06:37:55.591Z,59.20
2018-02-25T06:40:23.148Z,59.10
2018-02-25T06:42:51.481Z,58.60
2018-02-25T06:45:19.049Z,58.60
2018-02-25T06:47:46.623Z,58.60
2018-02-25T06:50:14.157Z,58.30
2018-02-25T06:52:42.489Z,58.20
2018-02-25T06:55:10.057Z,58.10
2018-02-25T06:57:37.618Z,57.80
2018-02-25T07:00:05.174Z,57.80
2018-02-25T07:02:33.508Z,57.60
2018-02-25T07:05:01.043Z,57.60
2018-02-25T07:07:28.610Z,57.50
2018-02-25T07:09:56.163Z,57.50
2018-02-25T07:12:24.536Z,56.90
2018-02-25T07:14:52.086Z,57.00
2018-02-25T07:17:19.697Z,57.40
2018-02-25T07:19:48.004Z,56.90
2018-02-25T07:22:15.561Z,56.80
2018-02-25T07:24:43.865Z,56.80
2018-02-25T07:27:11.435Z,56.80
2018-02-25T07:29:38.991Z,56.60
2018-02-25T07:32:07.303Z,56.70
2018-02-25T07:34:34.926Z,56.60
2018-02-25T07:37:02.484Z,56.70
2018-02-25T07:39:30.044Z,56.40
2018-02-25T07:41:57.628Z,55.90
2018-02-25T07:44:25.179Z,55.90
2018-02-25T07:46:52.750Z,55.80
2018-02-25T07:49:20.323Z,55.70
2018-02-25T07:51:47.894Z,55.50
2018-02-25T07:54:15.470Z,55.80
2018-02-25T07:56:43.028Z,55.40
2018-02-25T07:59:10.583Z,55.10
2018-02-25T08:01:38.879Z,54.70
2018-02-25T08:04:07.228Z,54.30
2018-02-25T08:06:34.779Z,54.30
2018-02-25T08:09:02.363Z,54.20
2018-02-25T08:11:29.912Z,54.10
2018-02-25T08:13:57.483Z,54.70
2018-02-25T08:16:25.019Z,54.30
2018-02-25T08:18:52.578Z,53.80
2018-02-25T08:21:20.148Z,54.00
2018-02-25T08:23:47.719Z,53.30
2018-02-25T08:26:15.254Z,53.30
2018-02-25T08:28:42.821Z,53.30
2018-02-25T08:31:10.373Z,53.30
2018-02-25T08:33:37.946Z,53.30
2018-02-25T08:36:05.495Z,53.00
2018-02-25T08:38:33.064Z,52.00
2018-02-25T08:41:00.617Z,51.80
2018-02-25T08:43:28.180Z,52.00
2018-02-25T08:45:55.719Z,51.90
2018-02-25T08:48:23.276Z,52.00
2018-02-25T08:50:50.815Z,52.10
2018-02-25T08:53:18.385Z,51.10
2018-02-25T08:55:45.934Z,51.30
2018-02-25T08:58:13.507Z,50.80
2018-02-25T09:00:41.073Z,51.00
2018-02-25T09:03:08.630Z,50.50
2018-02-25T09:05:36.211Z,50.40
2018-02-25T09:08:03.783Z,49.70
2018-02-25T09:10:31.320Z,50.00
2018-02-25T09:12:59.644Z,49.40
2018-02-25T09:15:27.200Z,49.40
2018-02-25T09:17:54.751Z,49.60
2018-02-25T09:20:22.279Z,49.60
2018-02-25T09:22:49.830Z,49.20
2018-02-25T09:25:17.387Z,49.20
2018-02-25T09:27:44.953Z,48.30
2018-02-25T09:30:12.512Z,48.00
2018-02-25T09:32:40.877Z,47.40
2018-02-25T09:35:08.416Z,47.40
2018-02-25T09:37:35.960Z,47.50
2018-02-25T09:40:03.522Z,48.00
2018-02-25T09:42:31.837Z,47.50
2018-02-25T09:44:59.391Z,47.50
2018-02-25T09:47:26.960Z,46.80
2018-02-25T09:49:55.283Z,46.90
2018-02-25T09:52:22.831Z,46.90
2018-02-25T09:54:50.394Z,47.00
2018-02-25T09:57:17.942Z,46.70
2018-02-25T09:59:45.499Z,46.40
2018-02-25T10:02:13.056Z,46.10
2018-02-25T10:04:40.616Z,45.50
2018-02-25T10:07:08.150Z,46.00
2018-02-25T10:09:36.487Z,45.00
2018-02-25T10:12:04.055Z,45.00
2018-02-25T10:14:31.616Z,45.00
2018-02-25T10:16:59.172Z,44.30
2018-02-25T10:19:26.748Z,44.80
2018-02-25T10:21:54.326Z,44.60
2018-02-25T10:24:21.889Z,44.10
2018-02-25T10:26:49.446Z,44.20
2018-02-25T10:29:17.779Z,43.70
2018-02-25T10:31:45.339Z,43.60
2018-02-25T10:34:12.908Z,43.10
2018-02-25T10:36:40.492Z,43.00
2018-02-25T10:39:08.042Z,42.50
2018-02-25T10:41:35.587Z,42.50
2018-02-25T10:44:03.920Z,41.30
2018-02-25T10:46:31.483Z,41.30
2018-02-25T10:48:59.048Z,40.90
2018-02-25T10:51:26.583Z,41.20
2018-02-25T10:53:54.167Z,41.70
2018-02-25T10:56:22.491Z,41.90
2018-02-25T10:58:50.055Z,41.80
2018-02-25T11:01:17.608Z,40.40
2018-02-25T11:03:45.930Z,40.20
2018-02-25T11:06:13.479Z,40.20
2018-02-25T11:08:41.797Z,42.00
2018-02-25T11:11:09.350Z,41.90
2018-02-25T11:13:36.918Z,41.70
2018-02-25T11:16:04.466Z,41.70
2018-02-25T11:18:32.011Z,42.00
2018-02-25T11:20:59.570Z,41.70
2018-02-25T11:23:27.132Z,42.30
2018-02-25T11:25:54.690Z,41.60
2018-02-25T11:28:22.256Z,41.00
2018-02-25T11:30:49.826Z,40.80
2018-02-25T11:33:17.386Z,40.60
2018-02-25T11:35:45.716Z,40.80
2018-02-25T11:38:13.267Z,41.00
2018-02-25T11:40:40.833Z,40.50
2018-02-25T11:43:08.368Z,40.40
2018-02-25T11:45:35.927Z,40.80
2018-02-25T11:48:03.488Z,41.10
2018-02-25T11:50:31.048Z,40.50
2018-02-25T11:52:58.606Z,40.50
2018-02-25T11:55:26.288Z,40.40
2018-02-25T11:57:54.562Z,39.70
2018-02-25T12:00:22.126Z,39.70
2018-02-25T12:02:49.691Z,39.60
2018-02-25T12:05:18.026Z,39.50
2018-02-25T12:07:45.560Z,39.40
2018-02-25T12:10:13.114Z,39.60
2018-02-25T12:12:41.466Z,39.00
2018-02-25T12:15:09.026Z,39.00
2018-02-25T12:17:36.567Z,40.20
2018-02-25T12:20:04.904Z,40.40
2018-02-25T12:22:32.455Z,40.30
2018-02-25T12:25:00.016Z,39.80
2018-02-25T12:27:27.555Z,40.20
2018-02-25T12:29:55.898Z,39.00
2018-02-25T12:32:23.870Z,39.00
2018-02-25T12:34:51.436Z,38.20
2018-02-25T12:37:18.992Z,39.00
2018-02-25T12:39:46.629Z,38.60
2018-02-25T12:42:14.180Z,39.50
2018-02-25T12:44:41.748Z,39.00
2018-02-25T12:47:09.295Z,38.50
2018-02-25T12:49:36.871Z,38.00
2018-02-25T12:52:04.492Z,37.60
2018-02-25T12:54:32.044Z,37.20
2018-02-25T12:56:59.638Z,36.70
2018-02-25T12:59:27.177Z,37.30
2018-02-25T13:01:54.745Z,37.10
2018-02-25T13:04:22.290Z,37.00
2018-02-25T13:06:49.848Z,36.60
2018-02-25T13:09:18.176Z,37.00
2018-02-25T13:11:45.739Z,36.90
2018-02-25T13:14:13.294Z,36.60
2018-02-25T13:16:40.890Z,36.60
2018-02-25T13:19:08.434Z,35.30
2018-02-25T13:21:36.004Z,35.50
2018-02-25T13:24:04.320Z,37.80
2018-02-25T13:26:31.888Z,37.20
2018-02-25T13:28:59.437Z,37.50
2018-02-25T13:31:26.996Z,36.80
2018-02-25T13:33:54.541Z,35.80
2018-02-25T13:36:22.131Z,36.40
2018-02-25T13:38:49.676Z,37.00
2018-02-25T13:41:17.265Z,38.00
2018-02-25T13:43:44.821Z,37.50
2018-02-25T13:46:12.440Z,37.20
2018-02-25T13:48:40.021Z,37.50
2018-02-25T13:51:07.591Z,37.60
2018-02-25T13:53:35.903Z,37.90
2018-02-25T13:56:03.494Z,37.80
2018-02-25T13:58:31.119Z,36.90
2018-02-25T14:00:58.677Z,36.60
2018-02-25T14:03:27.010Z,36.50
2018-02-25T14:05:54.564Z,36.50
2018-02-25T14:08:22.106Z,35.90
2018-02-25T14:10:49.804Z,35.20
2018-02-25T14:13:18.137Z,36.20
2018-02-25T14:15:45.702Z,36.10
2018-02-25T14:18:13.258Z,37.00
2018-02-25T14:20:40.827Z,36.80
2018-02-25T14:23:09.137Z,37.10
2018-02-25T14:25:36.700Z,37.10
2018-02-25T14:28:04.248Z,36.50
2018-02-25T14:30:31.825Z,36.30
2018-02-25T14:33:00.134Z,36.90
2018-02-25T14:35:27.696Z,36.90
2018-02-25T14:37:55.259Z,36.70
2018-02-25T14:40:23.564Z,37.30
2018-02-25T14:42:51.895Z,37.00
2018-02-25T14:45:19.456Z,37.00
2018-02-25T14:47:47.026Z,36.70
2018-02-25T14:50:14.581Z,36.70
2018-02-25T14:52:42.135Z,37.50
2018-02-25T14:55:10.454Z,37.30
2018-02-25T14:57:38.033Z,37.20
2018-02-25T15:00:05.642Z,37.10
2018-02-25T15:02:33.191Z,36.70
2018-02-25T15:05:00.760Z,37.20
2018-02-25T15:07:29.374Z,37.60
2018-02-25T15:09:56.915Z,37.00
2018-02-25T15:12:24.488Z,36.40
2018-02-25T15:14:52.048Z,36.50
2018-02-25T15:17:19.610Z,36.80
2018-02-25T15:19:47.154Z,36.80
2018-02-25T15:22:14.742Z,37.00
2018-02-25T15:24:42.277Z,36.60
2018-02-25T15:27:09.830Z,36.70
2018-02-25T15:29:37.378Z,36.50
2018-02-25T15:32:04.991Z,35.70
2018-02-25T15:34:32.550Z,35.80
2018-02-25T15:37:00.117Z,35.80
2018-02-25T15:39:27.669Z,35.80
2018-02-25T15:41:55.228Z,36.00
2018-02-25T15:44:23.534Z,35.90
2018-02-25T15:46:51.095Z,35.80
2018-02-25T15:49:18.635Z,35.90
2018-02-25T15:51:46.194Z,35.50
2018-02-25T15:54:13.739Z,35.10
2018-02-25T15:56:41.309Z,35.20
2018-02-25T15:59:08.851Z,35.60
2018-02-25T16:01:36.434Z,35.60
2018-02-25T16:04:03.980Z,36.20
2018-02-25T16:06:31.552Z,35.90
2018-02-25T16:08:59.871Z,35.70
2018-02-25T16:11:27.457Z,35.70
2018-02-25T16:13:55.758Z,35.10
2018-02-25T16:16:23.325Z,35.10
2018-02-25T16:18:50.889Z,34.80
2018-02-25T16:21:18.453Z,34.80
2018-02-25T16:23:46.050Z,35.60
2018-02-25T16:26:13.601Z,35.30
2018-02-25T16:28:41.182Z,34.90
2018-02-25T16:31:08.728Z,35.00
2018-02-25T16:33:36.303Z,35.50
2018-02-25T16:36:04.076Z,35.60
2018-02-25T16:38:31.626Z,35.30
2018-02-25T16:40:59.937Z,35.40
2018-02-25T16:43:28.275Z,35.90
2018-02-25T16:45:55.815Z,35.90
2018-02-25T16:48:23.372Z,36.20
2018-02-25T16:50:50.916Z,35.70
2018-02-25T16:53:18.503Z,35.70
2018-02-25T16:55:46.824Z,36.60
2018-02-25T16:58:14.418Z,36.60
2018-02-25T17:00:41.972Z,36.00
2018-02-25T17:03:09.543Z,36.50
2018-02-25T17:05:37.080Z,36.00
2018-02-25T17:08:04.708Z,36.30
2018-02-25T17:10:32.266Z,36.10
2018-02-25T17:12:59.829Z,35.50
2018-02-25T17:15:27.424Z,35.50
2018-02-25T17:17:54.978Z,36.20
2018-02-25T17:20:22.543Z,35.80
2018-02-25T17:22:50.134Z,36.30
2018-02-25T17:25:17.701Z,36.80
2018-02-25T17:27:45.282Z,36.50
2018-02-25T17:30:12.867Z,36.70
2018-02-25T17:32:40.446Z,37.30
2018-02-25T17:35:07.990Z,37.20
2018-02-25T17:37:35.556Z,37.80
2018-02-25T17:40:03.098Z,38.00
2018-02-25T17:42:30.673Z,37.90
2018-02-25T17:44:58.988Z,38.70
2018-02-25T17:47:26.576Z,38.60
2018-02-25T17:49:54.132Z,38.20
2018-02-25T17:52:21.695Z,38.80
2018-02-25T17:54:49.286Z,39.30
2018-02-25T17:57:16.856Z,39.20
2018-02-25T17:59:44.443Z,39.10
2018-02-25T18:02:12.003Z,39.10
2018-02-25T18:04:39.583Z,39.10
2018-02-25T18:07:07.137Z,39.10
2018-02-25T18:09:34.725Z,39.20
2018-02-25T18:12:02.280Z,39.10
2018-02-25T18:14:29.839Z,39.10
2018-02-25T18:16:58.133Z,39.20
2018-02-25T18:19:26.462Z,39.80
2018-02-25T18:21:53.994Z,39.70
2018-02-25T18:24:21.569Z,40.60
2018-02-25T18:26:49.112Z,40.20
2018-02-25T18:29:16.671Z,40.10
2018-02-25T18:31:44.251Z,40.00
2018-02-25T18:34:11.844Z,40.00
2018-02-25T18:36:40.142Z,40.30
2018-02-25T18:39:08.471Z,40.20
2018-02-25T18:41:36.023Z,40.80
2018-02-25T18:44:03.597Z,40.40
2018-02-25T18:46:31.195Z,40.60
2018-02-25T18:48:58.775Z,40.80
2018-02-25T18:51:26.328Z,40.40
2018-02-25T18:53:53.920Z,40.60
2018-02-25T18:56:21.455Z,40.40
2018-02-25T18:58:49.814Z,40.20
2018-02-25T19:01:17.366Z,40.20
2018-02-25T19:03:44.956Z,40.40
2018-02-25T19:06:12.516Z,40.40
2018-02-25T19:08:40.080Z,40.40
2018-02-25T19:11:07.632Z,40.70
2018-02-25T19:13:35.199Z,40.80
2018-02-25T19:16:02.748Z,40.50
2018-02-25T19:18:30.310Z,40.40
2018-02-25T19:20:57.879Z,40.40
2018-02-25T19:23:25.437Z,40.70
2018-02-25T19:25:52.990Z,40.60
2018-02-25T19:28:21.297Z,41.10
2018-02-25T19:30:49.643Z,41.20
2018-02-25T19:33:17.177Z,41.10
2018-02-25T19:35:51.168Z,41.80
2018-02-25T19:38:24.430Z,41.80
2018-02-25T19:40:57.613Z,41.70
2018-02-25T19:43:25.922Z,42.00
2018-02-25T19:45:53.481Z,42.00
2018-02-25T19:48:21.825Z,42.50
2018-02-25T19:50:49.392Z,42.50
2018-02-25T19:53:16.951Z,42.60
2018-02-25T19:55:44.555Z,42.90
2018-02-25T19:58:12.110Z,43.10
2018-02-25T20:00:39.695Z,43.20
2018-02-25T20:03:07.231Z,43.50
2018-02-25T20:05:34.790Z,43.60
2018-02-25T20:08:02.350Z,43.70
2018-02-25T20:10:30.711Z,44.10
2018-02-25T20:12:58.266Z,44.00
2018-02-25T20:15:25.838Z,44.20
2018-02-25T20:17:53.387Z,44.10
2018-02-25T20:20:20.971Z,44.40
2018-02-25T20:22:48.547Z,44.50
2018-02-25T20:25:16.187Z,44.50
2018-02-25T20:27:43.761Z,45.20
2018-02-25T20:30:11.319Z,45.10
2018-02-25T20:32:39.630Z,45.40
2018-02-25T20:35:07.202Z,45.40
2018-02-25T20:37:34.751Z,45.50
2018-02-25T20:40:02.322Z,45.80
2018-02-25T20:42:29.874Z,46.20
2018-02-25T20:44:57.475Z,46.10
2018-02-25T20:47:25.807Z,46.20
2018-02-25T20:49:53.379Z,46.20
2018-02-25T20:52:20.930Z,46.50
2018-02-25T20:54:48.508Z,46.50
2018-02-25T20:57:16.066Z,46.50
2018-02-25T20:59:43.672Z,46.50
2018-02-25T21:02:11.243Z,46.50
2018-02-25T21:04:38.832Z,46.50
2018-02-25T21:07:06.389Z,46.50
2018-02-25T21:09:34.001Z,46.50
2018-02-25T21:12:02.331Z,46.80
2018-02-25T21:14:29.917Z,46.80
2018-02-25T21:16:57.463Z,46.70
2018-02-25T21:19:25.787Z,47.20
2018-02-25T21:21:53.362Z,47.10
2018-02-25T21:24:20.923Z,47.20
2018-02-25T21:26:48.508Z,47.50
2018-02-25T21:29:16.072Z,47.50
2018-02-25T21:31:43.675Z,47.70
2018-02-25T21:34:11.233Z,47.90
2018-02-25T21:36:38.802Z,47.90
2018-02-25T21:39:06.356Z,48.10
2018-02-25T21:41:33.948Z,48.30
2018-02-25T21:44:01.499Z,48.60
2018-02-25T21:46:29.088Z,48.50
2018-02-25T21:48:56.624Z,48.80
2018-02-25T21:51:24.191Z,48.90
2018-02-25T21:53:51.750Z,48.90
2018-02-25T21:56:25.761Z,49.10
2018-02-25T21:58:59.108Z,49.10
2018-02-25T22:04:36.909Z,49.20
2018-02-25T22:07:04.571Z,49.40
2018-02-25T22:09:32.265Z,49.30
2018-02-25T22:12:00.017Z,49.10
2018-02-25T22:14:27.816Z,49.60
2018-02-25T22:16:58.293Z,49.10
2018-02-25T22:19:25.952Z,49.10
2018-02-25T22:21:53.754Z,48.90
